sensor_id;sensor_type;location;lat;lon;timestamp;temperature;humidity
9223;DHT22;7557;51.698;3.942;2023-08-06T00:02:17;17.60;99.90
9223;DHT22;7557;51.698;3.942;2023-08-06T00:04:45;17.50;99.90
9223;DHT22;7557;51.698;3.942;2023-08-06T00:07:12;17.50;99.90
9223;DHT22;7557;51.698;3.942;2023-08-06T00:09:39;17.50;99.90
9223;DHT22;7557;51.698;3.942;2023-08-06T00:12:07;17.40;99.90
9223;DHT22;7557;51.698;3.942;2023-08-06T00:14:34;17.30;99.90
9223;DHT22;7557;51.698;3.942;2023-08-06T00:17:03;17.20;99.90
9223;DHT22;7557;51.698;3.942;2023-08-06T00:19:31;17.20;99.90
9223;DHT22;7557;51.698;3.942;2023-08-06T00:21:58;17.20;99.90
9223;DHT22;7557;51.698;3.942;2023-08-06T00:24:25;17.10;99.90
9223;DHT22;7557;51.698;3.942;2023-08-06T00:26:52;17.10;99.90
9223;DHT22;7557;51.698;3.942;2023-08-06T00:29:20;17.10;99.90
9223;DHT22;7557;51.698;3.942;2023-08-06T00:31:47;17.10;99.90
9223;DHT22;7557;51.698;3.942;2023-08-06T00:34:15;17.10;99.90
9223;DHT22;7557;51.698;3.942;2023-08-06T00:36:42;17.00;99.90
9223;DHT22;7557;51.698;3.942;2023-08-06T00:39:09;17.00;99.90
9223;DHT22;7557;51.698;3.942;2023-08-06T00:41:37;17.00;99.90
9223;DHT22;7557;51.698;3.942;2023-08-06T00:44:04;16.90;99.90
9223;DHT22;7557;51.698;3.942;2023-08-06T00:47:02;16.90;99.90
9223;DHT22;7557;51.698;3.942;2023-08-06T00:49:31;16.90;99.90
9223;DHT22;7557;51.698;3.942;2023-08-06T00:51:58;16.90;99.90
9223;DHT22;7557;51.698;3.942;2023-08-06T00:54:26;16.90;99.90
9223;DHT22;7557;51.698;3.942;2023-08-06T00:56:54;16.90;99.90
9223;DHT22;7557;51.698;3.942;2023-08-06T00:59:23;16.90;99.90
9223;DHT22;7557;51.698;3.942;2023-08-06T01:01:51;16.90;99.90
9223;DHT22;7557;51.698;3.942;2023-08-06T01:04:19;16.90;99.90
9223;DHT22;7557;51.698;3.942;2023-08-06T01:06:52;16.80;99.90
9223;DHT22;7557;51.698;3.942;2023-08-06T01:09:33;16.80;99.90
9223;DHT22;7557;51.698;3.942;2023-08-06T01:12:11;16.80;99.90
9223;DHT22;7557;51.698;3.942;2023-08-06T01:14:48;16.80;99.90
9223;DHT22;7557;51.698;3.942;2023-08-06T01:17:18;16.70;99.90
9223;DHT22;7557;51.698;3.942;2023-08-06T01:19:45;16.60;99.90
9223;DHT22;7557;51.698;3.942;2023-08-06T01:22:13;16.60;99.90
9223;DHT22;7557;51.698;3.942;2023-08-06T01:24:43;16.60;99.90
9223;DHT22;7557;51.698;3.942;2023-08-06T01:27:18;16.60;99.90
9223;DHT22;7557;51.698;3.942;2023-08-06T01:29:58;16.60;99.90
9223;DHT22;7557;51.698;3.942;2023-08-06T01:32:30;16.60;99.90
9223;DHT22;7557;51.698;3.942;2023-08-06T01:35:00;16.60;99.90
9223;DHT22;7557;51.698;3.942;2023-08-06T01:37:29;16.60;99.90
9223;DHT22;7557;51.698;3.942;2023-08-06T01:39:57;16.60;99.90
9223;DHT22;7557;51.698;3.942;2023-08-06T01:42:24;16.50;99.90
9223;DHT22;7557;51.698;3.942;2023-08-06T01:44:51;16.50;99.90
9223;DHT22;7557;51.698;3.942;2023-08-06T01:47:18;16.50;99.90
9223;DHT22;7557;51.698;3.942;2023-08-06T01:49:46;16.50;99.90
9223;DHT22;7557;51.698;3.942;2023-08-06T01:52:13;16.50;99.90
9223;DHT22;7557;51.698;3.942;2023-08-06T01:54:41;16.50;99.90
9223;DHT22;7557;51.698;3.942;2023-08-06T01:57:09;16.50;99.90
9223;DHT22;7557;51.698;3.942;2023-08-06T01:59:36;16.40;99.90
9223;DHT22;7557;51.698;3.942;2023-08-06T02:02:04;16.40;99.90
9223;DHT22;7557;51.698;3.942;2023-08-06T02:04:31;16.40;99.90
9223;DHT22;7557;51.698;3.942;2023-08-06T02:06:58;16.40;99.90
9223;DHT22;7557;51.698;3.942;2023-08-06T02:09:25;16.40;99.90
9223;DHT22;7557;51.698;3.942;2023-08-06T02:11:54;16.50;99.90
9223;DHT22;7557;51.698;3.942;2023-08-06T02:14:21;16.40;99.90
9223;DHT22;7557;51.698;3.942;2023-08-06T02:16:49;16.40;99.90
9223;DHT22;7557;51.698;3.942;2023-08-06T02:19:16;16.40;99.90
9223;DHT22;7557;51.698;3.942;2023-08-06T02:21:43;16.50;99.90
9223;DHT22;7557;51.698;3.942;2023-08-06T02:24:11;16.50;99.90
9223;DHT22;7557;51.698;3.942;2023-08-06T02:26:38;16.50;99.90
9223;DHT22;7557;51.698;3.942;2023-08-06T02:29:07;16.40;99.90
9223;DHT22;7557;51.698;3.942;2023-08-06T02:31:34;16.40;99.90
9223;DHT22;7557;51.698;3.942;2023-08-06T02:34:01;16.40;99.90
9223;DHT22;7557;51.698;3.942;2023-08-06T02:36:28;16.40;99.90
9223;DHT22;7557;51.698;3.942;2023-08-06T02:38:56;16.40;99.90
9223;DHT22;7557;51.698;3.942;2023-08-06T02:41:23;16.40;99.90
9223;DHT22;7557;51.698;3.942;2023-08-06T02:43:50;16.50;99.90
9223;DHT22;7557;51.698;3.942;2023-08-06T02:46:19;16.50;99.90
9223;DHT22;7557;51.698;3.942;2023-08-06T02:48:46;16.30;99.90
9223;DHT22;7557;51.698;3.942;2023-08-06T02:51:13;16.10;99.90
9223;DHT22;7557;51.698;3.942;2023-08-06T02:53:41;15.90;99.90
9223;DHT22;7557;51.698;3.942;2023-08-06T02:56:08;15.80;99.90
9223;DHT22;7557;51.698;3.942;2023-08-06T02:58:35;15.70;99.90
9223;DHT22;7557;51.698;3.942;2023-08-06T03:01:03;15.60;99.90
9223;DHT22;7557;51.698;3.942;2023-08-06T03:03:32;15.40;99.90
9223;DHT22;7557;51.698;3.942;2023-08-06T03:06:00;15.30;99.90
9223;DHT22;7557;51.698;3.942;2023-08-06T03:08:28;15.30;99.90
9223;DHT22;7557;51.698;3.942;2023-08-06T03:10:55;15.10;99.90
9223;DHT22;7557;51.698;3.942;2023-08-06T03:13:23;15.10;99.90
9223;DHT22;7557;51.698;3.942;2023-08-06T03:15:53;15.00;99.90
9223;DHT22;7557;51.698;3.942;2023-08-06T03:18:21;15.10;99.90
9223;DHT22;7557;51.698;3.942;2023-08-06T03:20:49;15.10;99.90
9223;DHT22;7557;51.698;3.942;2023-08-06T03:23:17;15.20;99.90
9223;DHT22;7557;51.698;3.942;2023-08-06T03:25:44;15.30;99.90
9223;DHT22;7557;51.698;3.942;2023-08-06T03:28:12;15.30;99.90
9223;DHT22;7557;51.698;3.942;2023-08-06T03:30:39;15.40;99.90
9223;DHT22;7557;51.698;3.942;2023-08-06T03:33:06;15.40;99.90
9223;DHT22;7557;51.698;3.942;2023-08-06T03:35:34;15.50;99.90
9223;DHT22;7557;51.698;3.942;2023-08-06T03:38:03;15.50;99.90
9223;DHT22;7557;51.698;3.942;2023-08-06T03:40:30;15.50;99.90
9223;DHT22;7557;51.698;3.942;2023-08-06T03:43:06;15.60;99.90
9223;DHT22;7557;51.698;3.942;2023-08-06T03:45:34;15.60;99.90
9223;DHT22;7557;51.698;3.942;2023-08-06T03:48:01;15.60;99.90
9223;DHT22;7557;51.698;3.942;2023-08-06T03:50:28;15.60;99.90
9223;DHT22;7557;51.698;3.942;2023-08-06T03:52:56;15.60;99.90
9223;DHT22;7557;51.698;3.942;2023-08-06T03:55:26;15.50;99.90
9223;DHT22;7557;51.698;3.942;2023-08-06T03:57:53;15.50;99.90
9223;DHT22;7557;51.698;3.942;2023-08-06T04:00:21;15.40;99.90
9223;DHT22;7557;51.698;3.942;2023-08-06T04:02:48;15.40;99.90
9223;DHT22;7557;51.698;3.942;2023-08-06T04:05:16;15.40;99.90
9223;DHT22;7557;51.698;3.942;2023-08-06T04:07:44;15.40;99.90
9223;DHT22;7557;51.698;3.942;2023-08-06T04:10:11;15.40;99.90
9223;DHT22;7557;51.698;3.942;2023-08-06T04:12:40;15.40;99.90
9223;DHT22;7557;51.698;3.942;2023-08-06T04:15:08;15.40;99.90
9223;DHT22;7557;51.698;3.942;2023-08-06T04:17:35;15.40;99.90
9223;DHT22;7557;51.698;3.942;2023-08-06T04:20:03;15.40;99.90
9223;DHT22;7557;51.698;3.942;2023-08-06T04:22:31;15.40;99.90
9223;DHT22;7557;51.698;3.942;2023-08-06T04:24:58;15.40;99.90
9223;DHT22;7557;51.698;3.942;2023-08-06T04:27:25;15.40;99.90
9223;DHT22;7557;51.698;3.942;2023-08-06T04:29:57;15.40;99.90
9223;DHT22;7557;51.698;3.942;2023-08-06T04:32:25;15.40;99.90
9223;DHT22;7557;51.698;3.942;2023-08-06T04:34:52;15.40;99.90
9223;DHT22;7557;51.698;3.942;2023-08-06T04:37:19;15.30;99.90
9223;DHT22;7557;51.698;3.942;2023-08-06T04:39:47;15.40;99.90
9223;DHT22;7557;51.698;3.942;2023-08-06T04:42:14;15.40;99.90
9223;DHT22;7557;51.698;3.942;2023-08-06T04:44:42;15.40;99.90
9223;DHT22;7557;51.698;3.942;2023-08-06T04:47:10;15.40;99.90
9223;DHT22;7557;51.698;3.942;2023-08-06T04:49:38;15.40;99.90
9223;DHT22;7557;51.698;3.942;2023-08-06T04:52:06;15.40;99.90
9223;DHT22;7557;51.698;3.942;2023-08-06T04:54:34;15.40;99.90
9223;DHT22;7557;51.698;3.942;2023-08-06T04:57:01;15.40;99.90
9223;DHT22;7557;51.698;3.942;2023-08-06T04:59:28;15.40;99.90
9223;DHT22;7557;51.698;3.942;2023-08-06T05:01:56;15.40;99.90
9223;DHT22;7557;51.698;3.942;2023-08-06T05:04:25;15.40;99.90
9223;DHT22;7557;51.698;3.942;2023-08-06T05:06:52;15.40;99.90
9223;DHT22;7557;51.698;3.942;2023-08-06T05:09:20;15.40;99.90
9223;DHT22;7557;51.698;3.942;2023-08-06T05:11:47;15.40;99.90
9223;DHT22;7557;51.698;3.942;2023-08-06T05:14:14;15.40;99.90
9223;DHT22;7557;51.698;3.942;2023-08-06T05:16:42;15.50;99.90
9223;DHT22;7557;51.698;3.942;2023-08-06T05:19:09;15.50;99.90
9223;DHT22;7557;51.698;3.942;2023-08-06T05:21:38;15.50;99.90
9223;DHT22;7557;51.698;3.942;2023-08-06T05:24:05;15.50;99.90
9223;DHT22;7557;51.698;3.942;2023-08-06T05:26:33;15.50;99.90
9223;DHT22;7557;51.698;3.942;2023-08-06T05:29:00;15.50;99.90
9223;DHT22;7557;51.698;3.942;2023-08-06T05:31:28;15.50;99.90
9223;DHT22;7557;51.698;3.942;2023-08-06T05:33:55;15.50;99.90
9223;DHT22;7557;51.698;3.942;2023-08-06T05:36:26;15.60;99.90
9223;DHT22;7557;51.698;3.942;2023-08-06T05:38:55;15.60;99.90
9223;DHT22;7557;51.698;3.942;2023-08-06T05:41:22;15.70;99.90
9223;DHT22;7557;51.698;3.942;2023-08-06T05:43:50;15.70;99.90
9223;DHT22;7557;51.698;3.942;2023-08-06T05:46:17;15.70;99.90
9223;DHT22;7557;51.698;3.942;2023-08-06T05:48:44;15.70;99.90
9223;DHT22;7557;51.698;3.942;2023-08-06T05:51:12;15.80;99.90
9223;DHT22;7557;51.698;3.942;2023-08-06T05:53:40;15.80;99.90
9223;DHT22;7557;51.698;3.942;2023-08-06T05:56:09;15.80;99.90
9223;DHT22;7557;51.698;3.942;2023-08-06T05:58:37;15.80;99.90
9223;DHT22;7557;51.698;3.942;2023-08-06T06:01:04;15.80;99.90
9223;DHT22;7557;51.698;3.942;2023-08-06T06:03:32;15.80;99.90
9223;DHT22;7557;51.698;3.942;2023-08-06T06:06:01;15.80;99.90
9223;DHT22;7557;51.698;3.942;2023-08-06T06:08:29;15.90;99.90
9223;DHT22;7557;51.698;3.942;2023-08-06T06:10:56;15.90;99.90
9223;DHT22;7557;51.698;3.942;2023-08-06T06:13:25;15.90;99.90
9223;DHT22;7557;51.698;3.942;2023-08-06T06:15:54;15.90;99.90
9223;DHT22;7557;51.698;3.942;2023-08-06T06:18:22;16.00;99.90
9223;DHT22;7557;51.698;3.942;2023-08-06T06:20:49;16.00;99.90
9223;DHT22;7557;51.698;3.942;2023-08-06T06:23:17;16.00;99.90
9223;DHT22;7557;51.698;3.942;2023-08-06T06:25:47;16.10;99.90
9223;DHT22;7557;51.698;3.942;2023-08-06T06:28:15;16.10;99.90
9223;DHT22;7557;51.698;3.942;2023-08-06T06:30:43;16.10;99.90
9223;DHT22;7557;51.698;3.942;2023-08-06T06:33:11;16.10;99.90
9223;DHT22;7557;51.698;3.942;2023-08-06T06:35:38;16.20;99.90
9223;DHT22;7557;51.698;3.942;2023-08-06T06:38:05;16.20;99.90
9223;DHT22;7557;51.698;3.942;2023-08-06T06:40:33;16.30;99.90
9223;DHT22;7557;51.698;3.942;2023-08-06T06:43:00;16.30;99.90
9223;DHT22;7557;51.698;3.942;2023-08-06T06:45:27;16.30;99.90
9223;DHT22;7557;51.698;3.942;2023-08-06T06:47:56;16.30;99.90
9223;DHT22;7557;51.698;3.942;2023-08-06T06:50:25;16.40;99.90
9223;DHT22;7557;51.698;3.942;2023-08-06T06:52:52;16.40;99.90
9223;DHT22;7557;51.698;3.942;2023-08-06T06:55:19;16.40;99.90
9223;DHT22;7557;51.698;3.942;2023-08-06T06:57:46;16.40;99.90
9223;DHT22;7557;51.698;3.942;2023-08-06T07:00:14;16.40;99.90
9223;DHT22;7557;51.698;3.942;2023-08-06T07:02:42;16.50;99.90
9223;DHT22;7557;51.698;3.942;2023-08-06T07:05:11;16.50;99.90
9223;DHT22;7557;51.698;3.942;2023-08-06T07:07:38;16.50;99.90
9223;DHT22;7557;51.698;3.942;2023-08-06T07:10:06;16.50;99.90
9223;DHT22;7557;51.698;3.942;2023-08-06T07:12:34;16.50;99.90
9223;DHT22;7557;51.698;3.942;2023-08-06T07:15:03;16.60;99.90
9223;DHT22;7557;51.698;3.942;2023-08-06T07:17:31;16.60;99.90
9223;DHT22;7557;51.698;3.942;2023-08-06T07:19:58;16.70;99.90
9223;DHT22;7557;51.698;3.942;2023-08-06T07:22:27;16.70;99.90
9223;DHT22;7557;51.698;3.942;2023-08-06T07:24:54;16.80;99.90
9223;DHT22;7557;51.698;3.942;2023-08-06T07:27:21;16.90;99.90
9223;DHT22;7557;51.698;3.942;2023-08-06T07:29:50;16.80;99.90
9223;DHT22;7557;51.698;3.942;2023-08-06T07:32:17;16.80;99.90
9223;DHT22;7557;51.698;3.942;2023-08-06T07:34:45;16.80;99.90
9223;DHT22;7557;51.698;3.942;2023-08-06T07:37:12;16.70;99.90
9223;DHT22;7557;51.698;3.942;2023-08-06T07:39:42;16.80;99.90
9223;DHT22;7557;51.698;3.942;2023-08-06T07:42:11;16.80;99.90
9223;DHT22;7557;51.698;3.942;2023-08-06T07:44:38;16.80;99.90
9223;DHT22;7557;51.698;3.942;2023-08-06T07:47:06;16.80;99.90
9223;DHT22;7557;51.698;3.942;2023-08-06T07:49:33;16.80;99.90
9223;DHT22;7557;51.698;3.942;2023-08-06T07:52:00;16.80;99.90
9223;DHT22;7557;51.698;3.942;2023-08-06T07:54:28;16.80;99.90
9223;DHT22;7557;51.698;3.942;2023-08-06T07:56:57;16.80;99.90
9223;DHT22;7557;51.698;3.942;2023-08-06T07:59:25;16.90;99.90
9223;DHT22;7557;51.698;3.942;2023-08-06T08:01:53;17.00;99.90
9223;DHT22;7557;51.698;3.942;2023-08-06T08:04:20;17.00;99.90
9223;DHT22;7557;51.698;3.942;2023-08-06T08:06:47;17.10;99.90
9223;DHT22;7557;51.698;3.942;2023-08-06T08:09:15;17.10;99.90
9223;DHT22;7557;51.698;3.942;2023-08-06T08:11:42;17.20;99.90
9223;DHT22;7557;51.698;3.942;2023-08-06T08:14:11;17.20;99.90
9223;DHT22;7557;51.698;3.942;2023-08-06T08:16:39;17.30;99.90
9223;DHT22;7557;51.698;3.942;2023-08-06T08:19:06;17.30;99.90
9223;DHT22;7557;51.698;3.942;2023-08-06T08:21:33;17.20;99.90
9223;DHT22;7557;51.698;3.942;2023-08-06T08:24:01;17.30;99.90
9223;DHT22;7557;51.698;3.942;2023-08-06T08:26:28;17.20;99.90
9223;DHT22;7557;51.698;3.942;2023-08-06T08:28:56;17.20;99.90
9223;DHT22;7557;51.698;3.942;2023-08-06T08:31:25;17.20;99.90
9223;DHT22;7557;51.698;3.942;2023-08-06T08:33:54;17.20;99.90
9223;DHT22;7557;51.698;3.942;2023-08-06T08:36:21;17.10;99.90
9223;DHT22;7557;51.698;3.942;2023-08-06T08:38:49;17.20;99.90
9223;DHT22;7557;51.698;3.942;2023-08-06T08:41:20;17.20;99.90
9223;DHT22;7557;51.698;3.942;2023-08-06T08:43:50;17.20;99.90
9223;DHT22;7557;51.698;3.942;2023-08-06T08:46:18;17.30;99.90
9223;DHT22;7557;51.698;3.942;2023-08-06T08:48:48;17.30;99.90
9223;DHT22;7557;51.698;3.942;2023-08-06T08:51:16;17.30;99.90
9223;DHT22;7557;51.698;3.942;2023-08-06T08:53:44;17.40;99.90
9223;DHT22;7557;51.698;3.942;2023-08-06T08:56:13;17.40;99.90
9223;DHT22;7557;51.698;3.942;2023-08-06T08:58:40;17.40;99.90
9223;DHT22;7557;51.698;3.942;2023-08-06T09:01:09;17.40;99.90
9223;DHT22;7557;51.698;3.942;2023-08-06T09:03:36;17.50;99.90
9223;DHT22;7557;51.698;3.942;2023-08-06T09:06:06;17.60;99.90
9223;DHT22;7557;51.698;3.942;2023-08-06T09:08:39;17.60;99.90
9223;DHT22;7557;51.698;3.942;2023-08-06T09:11:09;17.70;99.90
9223;DHT22;7557;51.698;3.942;2023-08-06T09:13:37;17.60;99.90
9223;DHT22;7557;51.698;3.942;2023-08-06T09:16:05;17.60;99.90
9223;DHT22;7557;51.698;3.942;2023-08-06T09:18:32;17.40;99.90
9223;DHT22;7557;51.698;3.942;2023-08-06T09:21:00;17.50;99.90
9223;DHT22;7557;51.698;3.942;2023-08-06T09:23:32;17.50;99.90
9223;DHT22;7557;51.698;3.942;2023-08-06T09:25:59;17.40;99.90
9223;DHT22;7557;51.698;3.942;2023-08-06T09:28:37;17.40;99.90
9223;DHT22;7557;51.698;3.942;2023-08-06T09:31:08;17.40;99.90
9223;DHT22;7557;51.698;3.942;2023-08-06T09:33:37;17.10;99.90
9223;DHT22;7557;51.698;3.942;2023-08-06T09:36:09;16.80;99.90
9223;DHT22;7557;51.698;3.942;2023-08-06T09:38:41;16.50;99.90
9223;DHT22;7557;51.698;3.942;2023-08-06T09:41:10;16.40;99.90
9223;DHT22;7557;51.698;3.942;2023-08-06T09:43:42;16.20;99.90
9223;DHT22;7557;51.698;3.942;2023-08-06T09:46:13;16.10;99.90
9223;DHT22;7557;51.698;3.942;2023-08-06T09:48:45;16.00;99.90
9223;DHT22;7557;51.698;3.942;2023-08-06T09:51:13;16.10;99.90
9223;DHT22;7557;51.698;3.942;2023-08-06T09:53:42;16.20;99.90
9223;DHT22;7557;51.698;3.942;2023-08-06T09:56:11;16.30;99.90
9223;DHT22;7557;51.698;3.942;2023-08-06T09:58:41;16.40;99.90
9223;DHT22;7557;51.698;3.942;2023-08-06T10:01:09;16.40;99.90
9223;DHT22;7557;51.698;3.942;2023-08-06T10:03:39;16.50;99.90
9223;DHT22;7557;51.698;3.942;2023-08-06T10:06:07;16.60;99.90
9223;DHT22;7557;51.698;3.942;2023-08-06T10:08:34;16.70;99.90
9223;DHT22;7557;51.698;3.942;2023-08-06T10:11:04;16.90;99.90
9223;DHT22;7557;51.698;3.942;2023-08-06T10:13:33;16.90;99.90
9223;DHT22;7557;51.698;3.942;2023-08-06T10:16:02;17.00;99.90
9223;DHT22;7557;51.698;3.942;2023-08-06T10:18:31;16.90;99.90
9223;DHT22;7557;51.698;3.942;2023-08-06T10:20:59;16.90;99.90
9223;DHT22;7557;51.698;3.942;2023-08-06T10:23:34;17.00;99.90
9223;DHT22;7557;51.698;3.942;2023-08-06T10:26:05;17.10;99.90
9223;DHT22;7557;51.698;3.942;2023-08-06T10:28:42;17.10;99.90
9223;DHT22;7557;51.698;3.942;2023-08-06T10:31:09;17.10;99.90
9223;DHT22;7557;51.698;3.942;2023-08-06T10:33:44;17.00;99.90
9223;DHT22;7557;51.698;3.942;2023-08-06T10:36:12;17.10;99.90
9223;DHT22;7557;51.698;3.942;2023-08-06T10:38:49;17.10;99.90
9223;DHT22;7557;51.698;3.942;2023-08-06T10:41:22;17.10;99.90
9223;DHT22;7557;51.698;3.942;2023-08-06T10:43:50;17.10;99.90
9223;DHT22;7557;51.698;3.942;2023-08-06T10:46:23;17.20;99.90
9223;DHT22;7557;51.698;3.942;2023-08-06T10:48:51;17.30;99.90
9223;DHT22;7557;51.698;3.942;2023-08-06T10:51:18;17.30;99.90
9223;DHT22;7557;51.698;3.942;2023-08-06T10:53:46;17.30;99.90
9223;DHT22;7557;51.698;3.942;2023-08-06T10:56:15;17.30;99.90
9223;DHT22;7557;51.698;3.942;2023-08-06T10:58:48;17.30;99.90
9223;DHT22;7557;51.698;3.942;2023-08-06T11:01:16;17.20;99.90
9223;DHT22;7557;51.698;3.942;2023-08-06T11:03:44;17.20;99.90
9223;DHT22;7557;51.698;3.942;2023-08-06T11:06:17;17.20;99.90
9223;DHT22;7557;51.698;3.942;2023-08-06T11:08:48;17.30;99.90
9223;DHT22;7557;51.698;3.942;2023-08-06T11:11:16;17.30;99.90
9223;DHT22;7557;51.698;3.942;2023-08-06T11:13:45;17.30;99.90
9223;DHT22;7557;51.698;3.942;2023-08-06T11:16:15;17.40;99.90
9223;DHT22;7557;51.698;3.942;2023-08-06T11:18:43;17.40;99.90
9223;DHT22;7557;51.698;3.942;2023-08-06T11:21:11;17.50;99.90
9223;DHT22;7557;51.698;3.942;2023-08-06T11:23:39;17.60;99.90
9223;DHT22;7557;51.698;3.942;2023-08-06T11:26:07;17.70;99.90
9223;DHT22;7557;51.698;3.942;2023-08-06T11:28:35;17.80;99.90
9223;DHT22;7557;51.698;3.942;2023-08-06T11:31:02;17.80;99.90
9223;DHT22;7557;51.698;3.942;2023-08-06T11:33:31;17.70;99.90
9223;DHT22;7557;51.698;3.942;2023-08-06T11:35:59;17.50;99.90
9223;DHT22;7557;51.698;3.942;2023-08-06T11:38:29;17.30;99.90
9223;DHT22;7557;51.698;3.942;2023-08-06T11:40:56;17.10;99.90
9223;DHT22;7557;51.698;3.942;2023-08-06T11:43:24;16.90;99.90
9223;DHT22;7557;51.698;3.942;2023-08-06T11:45:52;16.90;99.90
9223;DHT22;7557;51.698;3.942;2023-08-06T11:48:23;16.80;99.90
9223;DHT22;7557;51.698;3.942;2023-08-06T11:50:54;16.80;99.90
9223;DHT22;7557;51.698;3.942;2023-08-06T11:53:29;16.90;99.90
9223;DHT22;7557;51.698;3.942;2023-08-06T11:55:57;17.00;99.90
9223;DHT22;7557;51.698;3.942;2023-08-06T11:58:25;17.30;99.90
9223;DHT22;7557;51.698;3.942;2023-08-06T12:00:52;17.50;99.90
9223;DHT22;7557;51.698;3.942;2023-08-06T12:03:22;17.60;99.90
9223;DHT22;7557;51.698;3.942;2023-08-06T12:05:55;17.70;99.90
9223;DHT22;7557;51.698;3.942;2023-08-06T12:08:26;17.80;99.90
9223;DHT22;7557;51.698;3.942;2023-08-06T12:10:54;17.80;99.90
9223;DHT22;7557;51.698;3.942;2023-08-06T12:13:21;17.70;99.90
9223;DHT22;7557;51.698;3.942;2023-08-06T12:15:48;17.50;99.90
9223;DHT22;7557;51.698;3.942;2023-08-06T12:18:18;17.30;99.90
9223;DHT22;7557;51.698;3.942;2023-08-06T12:20:46;17.00;99.90
9223;DHT22;7557;51.698;3.942;2023-08-06T12:23:15;16.70;99.90
9223;DHT22;7557;51.698;3.942;2023-08-06T12:25:43;16.60;99.90
9223;DHT22;7557;51.698;3.942;2023-08-06T12:28:11;16.40;99.90
9223;DHT22;7557;51.698;3.942;2023-08-06T12:30:39;16.40;99.90
9223;DHT22;7557;51.698;3.942;2023-08-06T12:33:10;16.30;99.90
9223;DHT22;7557;51.698;3.942;2023-08-06T12:35:38;16.10;99.90
9223;DHT22;7557;51.698;3.942;2023-08-06T12:38:05;15.90;99.90
9223;DHT22;7557;51.698;3.942;2023-08-06T12:40:34;15.80;99.90
9223;DHT22;7557;51.698;3.942;2023-08-06T12:43:03;15.60;99.90
9223;DHT22;7557;51.698;3.942;2023-08-06T12:45:30;15.40;99.90
9223;DHT22;7557;51.698;3.942;2023-08-06T12:47:58;15.30;99.90
9223;DHT22;7557;51.698;3.942;2023-08-06T12:50:25;15.20;99.90
9223;DHT22;7557;51.698;3.942;2023-08-06T12:52:53;15.10;99.90
9223;DHT22;7557;51.698;3.942;2023-08-06T12:55:20;15.10;99.90
9223;DHT22;7557;51.698;3.942;2023-08-06T12:57:49;15.20;99.90
9223;DHT22;7557;51.698;3.942;2023-08-06T13:00:17;15.20;99.90
9223;DHT22;7557;51.698;3.942;2023-08-06T13:02:44;15.30;99.90
9223;DHT22;7557;51.698;3.942;2023-08-06T13:05:12;15.30;99.90
9223;DHT22;7557;51.698;3.942;2023-08-06T13:07:39;15.40;99.90
9223;DHT22;7557;51.698;3.942;2023-08-06T13:10:07;15.50;99.90
9223;DHT22;7557;51.698;3.942;2023-08-06T13:12:35;15.50;99.90
9223;DHT22;7557;51.698;3.942;2023-08-06T13:15:04;15.60;99.90
9223;DHT22;7557;51.698;3.942;2023-08-06T13:17:32;15.60;99.90
9223;DHT22;7557;51.698;3.942;2023-08-06T13:20:00;15.60;99.90
9223;DHT22;7557;51.698;3.942;2023-08-06T13:22:27;15.50;99.90
9223;DHT22;7557;51.698;3.942;2023-08-06T13:24:54;15.50;99.90
9223;DHT22;7557;51.698;3.942;2023-08-06T13:27:22;15.50;99.90
9223;DHT22;7557;51.698;3.942;2023-08-06T13:29:49;15.60;99.90
9223;DHT22;7557;51.698;3.942;2023-08-06T13:32:18;15.60;99.90
9223;DHT22;7557;51.698;3.942;2023-08-06T13:34:45;15.70;99.90
9223;DHT22;7557;51.698;3.942;2023-08-06T13:37:13;15.70;99.90
9223;DHT22;7557;51.698;3.942;2023-08-06T13:39:40;15.70;99.90
9223;DHT22;7557;51.698;3.942;2023-08-06T13:42:07;15.70;99.90
9223;DHT22;7557;51.698;3.942;2023-08-06T13:44:35;15.70;99.90
9223;DHT22;7557;51.698;3.942;2023-08-06T13:47:02;15.70;99.90
9223;DHT22;7557;51.698;3.942;2023-08-06T13:49:31;15.80;99.90
9223;DHT22;7557;51.698;3.942;2023-08-06T13:52:01;15.90;99.90
9223;DHT22;7557;51.698;3.942;2023-08-06T13:54:29;15.90;99.90
9223;DHT22;7557;51.698;3.942;2023-08-06T13:56:57;15.90;99.90
9223;DHT22;7557;51.698;3.942;2023-08-06T13:59:24;16.00;99.90
9223;DHT22;7557;51.698;3.942;2023-08-06T14:01:52;16.00;99.90
9223;DHT22;7557;51.698;3.942;2023-08-06T14:04:19;16.10;99.90
9223;DHT22;7557;51.698;3.942;2023-08-06T14:06:48;16.00;99.90
9223;DHT22;7557;51.698;3.942;2023-08-06T14:09:16;16.00;99.90
9223;DHT22;7557;51.698;3.942;2023-08-06T14:11:44;15.80;99.90
9223;DHT22;7557;51.698;3.942;2023-08-06T14:14:11;15.70;99.90
9223;DHT22;7557;51.698;3.942;2023-08-06T14:16:39;15.60;99.90
9223;DHT22;7557;51.698;3.942;2023-08-06T14:19:07;15.60;99.90
9223;DHT22;7557;51.698;3.942;2023-08-06T14:21:34;15.60;99.90
9223;DHT22;7557;51.698;3.942;2023-08-06T14:24:03;15.60;99.90
9223;DHT22;7557;51.698;3.942;2023-08-06T14:26:31;15.60;99.90
9223;DHT22;7557;51.698;3.942;2023-08-06T14:28:58;15.80;99.90
9223;DHT22;7557;51.698;3.942;2023-08-06T14:31:26;15.90;99.90
9223;DHT22;7557;51.698;3.942;2023-08-06T14:33:54;16.00;99.90
9223;DHT22;7557;51.698;3.942;2023-08-06T14:36:21;16.00;99.90
9223;DHT22;7557;51.698;3.942;2023-08-06T14:38:48;16.00;99.90
9223;DHT22;7557;51.698;3.942;2023-08-06T14:41:17;16.00;99.90
9223;DHT22;7557;51.698;3.942;2023-08-06T14:43:45;16.10;99.90
9223;DHT22;7557;51.698;3.942;2023-08-06T14:46:15;16.20;99.90
9223;DHT22;7557;51.698;3.942;2023-08-06T14:48:43;16.20;99.90
9223;DHT22;7557;51.698;3.942;2023-08-06T14:51:10;16.10;99.90
9223;DHT22;7557;51.698;3.942;2023-08-06T14:53:38;16.00;99.90
9223;DHT22;7557;51.698;3.942;2023-08-06T14:56:06;16.00;99.90
9223;DHT22;7557;51.698;3.942;2023-08-06T14:58:35;16.00;99.90
9223;DHT22;7557;51.698;3.942;2023-08-06T15:01:02;16.00;99.90
9223;DHT22;7557;51.698;3.942;2023-08-06T15:03:30;15.90;99.90
9223;DHT22;7557;51.698;3.942;2023-08-06T15:05:57;16.00;99.90
9223;DHT22;7557;51.698;3.942;2023-08-06T15:08:25;16.10;99.90
9223;DHT22;7557;51.698;3.942;2023-08-06T15:10:52;16.20;99.90
9223;DHT22;7557;51.698;3.942;2023-08-06T15:13:20;16.30;99.90
9223;DHT22;7557;51.698;3.942;2023-08-06T15:15:50;16.20;99.90
9223;DHT22;7557;51.698;3.942;2023-08-06T15:18:17;16.20;99.90
9223;DHT22;7557;51.698;3.942;2023-08-06T15:20:45;16.10;99.90
9223;DHT22;7557;51.698;3.942;2023-08-06T15:23:12;16.00;99.90
9223;DHT22;7557;51.698;3.942;2023-08-06T15:25:40;16.10;99.90
9223;DHT22;7557;51.698;3.942;2023-08-06T15:28:07;16.10;99.90
9223;DHT22;7557;51.698;3.942;2023-08-06T15:30:35;16.10;99.90
9223;DHT22;7557;51.698;3.942;2023-08-06T15:33:04;16.10;99.90
9223;DHT22;7557;51.698;3.942;2023-08-06T15:35:31;16.10;99.90
9223;DHT22;7557;51.698;3.942;2023-08-06T15:37:58;15.90;99.90
9223;DHT22;7557;51.698;3.942;2023-08-06T15:40:26;15.80;99.90
9223;DHT22;7557;51.698;3.942;2023-08-06T15:42:54;15.80;99.90
9223;DHT22;7557;51.698;3.942;2023-08-06T15:45:22;15.80;99.90
9223;DHT22;7557;51.698;3.942;2023-08-06T15:47:49;15.80;99.90
9223;DHT22;7557;51.698;3.942;2023-08-06T15:50:19;15.90;99.90
9223;DHT22;7557;51.698;3.942;2023-08-06T15:52:46;15.90;99.90
9223;DHT22;7557;51.698;3.942;2023-08-06T15:55:13;15.80;99.90
9223;DHT22;7557;51.698;3.942;2023-08-06T15:57:41;15.80;99.90
9223;DHT22;7557;51.698;3.942;2023-08-06T16:00:10;15.80;99.90
9223;DHT22;7557;51.698;3.942;2023-08-06T16:02:38;15.70;99.90
9223;DHT22;7557;51.698;3.942;2023-08-06T16:05:06;15.70;99.90
9223;DHT22;7557;51.698;3.942;2023-08-06T16:07:35;15.60;99.90
9223;DHT22;7557;51.698;3.942;2023-08-06T16:10:03;15.60;99.90